sensor_id;sensor_type;location;lat;lon;timestamp;pressure;altitude;pressure_sealevel;temperature;humidity
49827;BME280;35715;51.570;6.036;2023-01-29T00:01:43;102949.50;;;0.22;76.18
49827;BME280;35715;51.570;6.036;2023-01-29T00:04:08;102949.06;;;0.19;76.02
49827;BME280;35715;51.570;6.036;2023-01-29T00:06:33;102945.34;;;0.16;76.28
49827;BME280;35715;51.570;6.036;2023-01-29T00:08:58;102949.78;;;0.12;76.45
49827;BME280;35715;51.570;6.036;2023-01-29T00:11:23;102955.81;;;0.07;76.42
49827;BME280;35715;51.570;6.036;2023-01-29T00:13:54;102950.28;;;0.09;76.69
49827;BME280;35715;51.570;6.036;2023-01-29T00:16:19;102940.06;;;0.15;77.06
49827;BME280;35715;51.570;6.036;2023-01-29T00:18:45;102943.75;;;0.17;76.95
49827;BME280;35715;51.570;6.036;2023-01-29T00:21:13;102940.28;;;0.16;77.04
49827;BME280;35715;51.570;6.036;2023-01-29T00:23:40;102936.38;;;0.19;77.07
49827;BME280;35715;51.570;6.036;2023-01-29T00:26:05;102941.16;;;0.23;77.45
49827;BME280;35715;51.570;6.036;2023-01-29T00:28:31;102934.22;;;0.27;77.36
49827;BME280;35715;51.570;6.036;2023-01-29T00:30:56;102934.91;;;0.26;76.97
49827;BME280;35715;51.570;6.036;2023-01-29T00:33:22;102930.06;;;0.28;77.17
49827;BME280;35715;51.570;6.036;2023-01-29T00:35:47;102927.97;;;0.25;76.89
49827;BME280;35715;51.570;6.036;2023-01-29T00:38:13;102927.06;;;0.25;76.84
49827;BME280;35715;51.570;6.036;2023-01-29T00:40:38;102926.00;;;0.17;76.99
49827;BME280;35715;51.570;6.036;2023-01-29T00:43:33;102924.63;;;0.13;76.96
49827;BME280;35715;51.570;6.036;2023-01-29T00:46:17;102916.34;;;0.09;77.06
49827;BME280;35715;51.570;6.036;2023-01-29T00:48:42;102913.59;;;0.07;77.27
49827;BME280;35715;51.570;6.036;2023-01-29T00:51:07;102913.34;;;0.11;77.27
49827;BME280;35715;51.570;6.036;2023-01-29T00:56:00;102911.59;;;-0.01;77.17
49827;BME280;35715;51.570;6.036;2023-01-29T00:58:26;102894.75;;;-0.06;77.43
49827;BME280;35715;51.570;6.036;2023-01-29T01:00:58;102895.72;;;-0.06;77.59
49827;BME280;35715;51.570;6.036;2023-01-29T01:03:25;102894.84;;;-0.12;77.48
49827;BME280;35715;51.570;6.036;2023-01-29T01:05:50;102883.97;;;-0.11;77.87
49827;BME280;35715;51.570;6.036;2023-01-29T01:08:26;102875.69;;;-0.15;78.18
49827;BME280;35715;51.570;6.036;2023-01-29T01:11:10;102873.00;;;-0.23;79.02
49827;BME280;35715;51.570;6.036;2023-01-29T01:13:35;102873.22;;;-0.21;78.20
49827;BME280;35715;51.570;6.036;2023-01-29T01:16:01;102877.34;;;-0.22;77.89
49827;BME280;35715;51.570;6.036;2023-01-29T01:18:29;102876.44;;;-0.22;78.22
49827;BME280;35715;51.570;6.036;2023-01-29T01:20:57;102875.03;;;-0.20;78.12
49827;BME280;35715;51.570;6.036;2023-01-29T01:23:23;102879.91;;;-0.22;78.29
49827;BME280;35715;51.570;6.036;2023-01-29T01:25:48;102875.31;;;-0.24;78.45
49827;BME280;35715;51.570;6.036;2023-01-29T01:28:14;102867.94;;;-0.23;78.38
49827;BME280;35715;51.570;6.036;2023-01-29T01:30:39;102877.56;;;-0.20;78.57
49827;BME280;35715;51.570;6.036;2023-01-29T01:33:04;102881.75;;;-0.21;78.62
49827;BME280;35715;51.570;6.036;2023-01-29T01:35:30;102880.84;;;-0.21;78.96
49827;BME280;35715;51.570;6.036;2023-01-29T01:37:55;102881.06;;;-0.20;78.59
49827;BME280;35715;51.570;6.036;2023-01-29T01:40:21;102879.91;;;-0.22;78.34
49827;BME280;35715;51.570;6.036;2023-01-29T01:42:47;102885.47;;;-0.24;78.18
49827;BME280;35715;51.570;6.036;2023-01-29T01:52:57;102899.56;;;-0.32;78.48
49827;BME280;35715;51.570;6.036;2023-01-29T01:55:26;102898.88;;;-0.31;78.79
49827;BME280;35715;51.570;6.036;2023-01-29T01:57:56;102895.88;;;-0.28;78.87
49827;BME280;35715;51.570;6.036;2023-01-29T02:00:24;102905.28;;;-0.27;78.67
49827;BME280;35715;51.570;6.036;2023-01-29T02:02:50;102903.25;;;-0.30;79.09
49827;BME280;35715;51.570;6.036;2023-01-29T02:05:34;102906.03;;;-0.34;78.80
49827;BME280;35715;51.570;6.036;2023-01-29T02:08:21;102909.00;;;-0.31;78.72
49827;BME280;35715;51.570;6.036;2023-01-29T02:11:07;102903.94;;;-0.31;78.99
49827;BME280;35715;51.570;6.036;2023-01-29T02:13:32;102901.19;;;-0.32;78.90
49827;BME280;35715;51.570;6.036;2023-01-29T02:15:58;102903.03;;;-0.31;78.88
49827;BME280;35715;51.570;6.036;2023-01-29T02:18:23;102898.66;;;-0.32;78.90
49827;BME280;35715;51.570;6.036;2023-01-29T02:21:02;102899.34;;;-0.33;79.21
49827;BME280;35715;51.570;6.036;2023-01-29T02:28:40;102906.28;;;-0.38;79.07
49827;BME280;35715;51.570;6.036;2023-01-29T02:31:23;102913.88;;;-0.38;79.21
49827;BME280;35715;51.570;6.036;2023-01-29T02:36:45;102905.81;;;-0.36;79.29
49827;BME280;35715;51.570;6.036;2023-01-29T02:41:57;102905.59;;;-0.37;79.37
49827;BME280;35715;51.570;6.036;2023-01-29T02:54:22;102913.22;;;-0.43;79.38
49827;BME280;35715;51.570;6.036;2023-01-29T02:59:16;102902.41;;;-0.47;79.69
49827;BME280;35715;51.570;6.036;2023-01-29T03:01:54;102890.69;;;-0.47;79.59
49827;BME280;35715;51.570;6.036;2023-01-29T03:04:25;102904.97;;;-0.47;80.13
49827;BME280;35715;51.570;6.036;2023-01-29T03:06:53;102899.88;;;-0.47;79.80
49827;BME280;35715;51.570;6.036;2023-01-29T03:09:23;102904.50;;;-0.45;79.89
49827;BME280;35715;51.570;6.036;2023-01-29T03:11:51;102907.94;;;-0.44;79.74
49827;BME280;35715;51.570;6.036;2023-01-29T03:14:29;102903.09;;;-0.43;79.63
49827;BME280;35715;51.570;6.036;2023-01-29T03:17:16;102909.09;;;-0.42;79.67
49827;BME280;35715;51.570;6.036;2023-01-29T03:19:42;102902.41;;;-0.42;79.68
49827;BME280;35715;51.570;6.036;2023-01-29T03:22:09;102898.00;;;-0.43;79.79
49827;BME280;35715;51.570;6.036;2023-01-29T03:24:51;102896.41;;;-0.42;79.91
49827;BME280;35715;51.570;6.036;2023-01-29T03:27:40;102893.22;;;-0.47;79.47
49827;BME280;35715;51.570;6.036;2023-01-29T03:30:26;102900.63;;;-0.54;79.64
49827;BME280;35715;51.570;6.036;2023-01-29T03:33:11;102903.41;;;-0.58;79.57
49827;BME280;35715;51.570;6.036;2023-01-29T03:35:40;102907.78;;;-0.57;79.81
49827;BME280;35715;51.570;6.036;2023-01-29T03:38:09;102900.22;;;-0.63;79.76
49827;BME280;35715;51.570;6.036;2023-01-29T03:40:38;102900.44;;;-0.67;80.31
49827;BME280;35715;51.570;6.036;2023-01-29T03:43:07;102900.44;;;-0.67;80.25
49827;BME280;35715;51.570;6.036;2023-01-29T03:53:22;102889.50;;;-0.43;80.00
49827;BME280;35715;51.570;6.036;2023-01-29T03:56:08;102886.06;;;-0.44;80.19
49827;BME280;35715;51.570;6.036;2023-01-29T03:58:54;102884.41;;;-0.38;80.35
49827;BME280;35715;51.570;6.036;2023-01-29T04:01:43;102878.16;;;-0.40;80.71
49827;BME280;35715;51.570;6.036;2023-01-29T04:06:59;102868.66;;;-0.29;80.38
49827;BME280;35715;51.570;6.036;2023-01-29T04:09:29;102860.81;;;-0.31;80.38
49827;BME280;35715;51.570;6.036;2023-01-29T04:12:01;102869.13;;;-0.32;80.13
49827;BME280;35715;51.570;6.036;2023-01-29T04:14:28;102871.16;;;-0.24;80.41
49827;BME280;35715;51.570;6.036;2023-01-29T04:16:54;102857.56;;;-0.24;80.28
49827;BME280;35715;51.570;6.036;2023-01-29T04:19:21;102859.16;;;-0.25;80.40
49827;BME280;35715;51.570;6.036;2023-01-29T04:21:47;102855.19;;;-0.17;80.52
49827;BME280;35715;51.570;6.036;2023-01-29T04:24:14;102859.31;;;-0.12;80.30
49827;BME280;35715;51.570;6.036;2023-01-29T04:31:39;102864.09;;;-0.08;80.56
49827;BME280;35715;51.570;6.036;2023-01-29T04:34:27;102857.59;;;0.00;80.65
49827;BME280;35715;51.570;6.036;2023-01-29T04:42:25;102849.94;;;0.06;79.97
49827;BME280;35715;51.570;6.036;2023-01-29T04:44:58;102849.22;;;0.07;80.12
49827;BME280;35715;51.570;6.036;2023-01-29T04:47:29;102847.34;;;0.11;80.42
49827;BME280;35715;51.570;6.036;2023-01-29T04:55:14;102823.00;;;0.25;80.26
49827;BME280;35715;51.570;6.036;2023-01-29T04:57:42;102822.00;;;0.30;80.41
49827;BME280;35715;51.570;6.036;2023-01-29T05:02:39;102810.38;;;0.38;79.95
49827;BME280;35715;51.570;6.036;2023-01-29T05:05:05;102807.38;;;0.40;80.25
49827;BME280;35715;51.570;6.036;2023-01-29T05:07:31;102803.19;;;0.41;79.78
49827;BME280;35715;51.570;6.036;2023-01-29T05:09:59;102806.88;;;0.43;80.04
49827;BME280;35715;51.570;6.036;2023-01-29T05:12:24;102806.03;;;0.37;79.76
49827;BME280;35715;51.570;6.036;2023-01-29T05:14:52;102806.03;;;0.37;79.59
49827;BME280;35715;51.570;6.036;2023-01-29T05:17:19;102796.09;;;0.38;79.81
49827;BME280;35715;51.570;6.036;2023-01-29T05:19:44;102799.53;;;0.39;79.91
49827;BME280;35715;51.570;6.036;2023-01-29T05:22:11;102793.03;;;0.41;79.97
49827;BME280;35715;51.570;6.036;2023-01-29T05:24:38;102787.53;;;0.38;79.82
49827;BME280;35715;51.570;6.036;2023-01-29T05:27:03;102781.75;;;0.39;79.98
49827;BME280;35715;51.570;6.036;2023-01-29T05:29:47;102780.34;;;0.41;79.94
49827;BME280;35715;51.570;6.036;2023-01-29T05:32:13;102776.47;;;0.37;80.13
49827;BME280;35715;51.570;6.036;2023-01-29T05:34:40;102781.13;;;0.34;80.64
49827;BME280;35715;51.570;6.036;2023-01-29T05:37:05;102785.06;;;0.32;80.96
49827;BME280;35715;51.570;6.036;2023-01-29T05:39:31;102783.41;;;0.38;80.70
49827;BME280;35715;51.570;6.036;2023-01-29T05:41:57;102769.28;;;0.40;81.16
49827;BME280;35715;51.570;6.036;2023-01-29T05:44:22;102772.25;;;0.43;81.14
49827;BME280;35715;51.570;6.036;2023-01-29T05:46:48;102774.94;;;0.50;80.93
49827;BME280;35715;51.570;6.036;2023-01-29T05:49:15;102773.34;;;0.45;81.16
49827;BME280;35715;51.570;6.036;2023-01-29T05:51:40;102780.50;;;0.48;81.00
49827;BME280;35715;51.570;6.036;2023-01-29T05:54:12;102788.75;;;0.52;81.13
49827;BME280;35715;51.570;6.036;2023-01-29T05:56:38;102781.28;;;0.60;80.59
49827;BME280;35715;51.570;6.036;2023-01-29T05:59:04;102790.22;;;0.63;80.51
49827;BME280;35715;51.570;6.036;2023-01-29T06:01:29;102800.41;;;0.63;80.53
49827;BME280;35715;51.570;6.036;2023-01-29T06:04:04;102812.66;;;0.60;80.71
49827;BME280;35715;51.570;6.036;2023-01-29T06:06:29;102810.75;;;0.65;80.67
49827;BME280;35715;51.570;6.036;2023-01-29T06:08:55;102817.28;;;0.63;81.22
49827;BME280;35715;51.570;6.036;2023-01-29T06:11:20;102823.91;;;0.68;80.65
49827;BME280;35715;51.570;6.036;2023-01-29T06:13:54;102825.94;;;0.70;80.46
49827;BME280;35715;51.570;6.036;2023-01-29T06:16:20;102827.28;;;0.74;80.34
49827;BME280;35715;51.570;6.036;2023-01-29T06:18:45;102819.66;;;0.74;80.37
49827;BME280;35715;51.570;6.036;2023-01-29T06:21:11;102835.53;;;0.79;80.58
49827;BME280;35715;51.570;6.036;2023-01-29T06:23:38;102836.97;;;0.77;80.17
49827;BME280;35715;51.570;6.036;2023-01-29T06:26:08;102844.09;;;0.79;80.28
49827;BME280;35715;51.570;6.036;2023-01-29T06:28:34;102836.69;;;0.81;80.53
49827;BME280;35715;51.570;6.036;2023-01-29T06:31:03;102820.28;;;0.79;80.46
49827;BME280;35715;51.570;6.036;2023-01-29T06:33:29;102812.47;;;0.77;80.24
49827;BME280;35715;51.570;6.036;2023-01-29T06:35:56;102807.38;;;0.77;80.22
49827;BME280;35715;51.570;6.036;2023-01-29T06:38:22;102792.66;;;0.75;80.36
49827;BME280;35715;51.570;6.036;2023-01-29T06:40:47;102791.72;;;0.74;80.61
49827;BME280;35715;51.570;6.036;2023-01-29T06:43:12;102795.13;;;0.80;80.48
49827;BME280;35715;51.570;6.036;2023-01-29T06:45:49;102794.41;;;0.81;80.46
49827;BME280;35715;51.570;6.036;2023-01-29T06:48:15;102790.25;;;0.82;80.28
49827;BME280;35715;51.570;6.036;2023-01-29T06:50:40;102791.03;;;0.75;80.44
49827;BME280;35715;51.570;6.036;2023-01-29T06:53:05;102783.59;;;0.77;80.65
49827;BME280;35715;51.570;6.036;2023-01-29T06:55:40;102787.56;;;0.75;80.82
49827;BME280;35715;51.570;6.036;2023-01-29T06:58:06;102781.28;;;0.78;80.85
49827;BME280;35715;51.570;6.036;2023-01-29T07:00:32;102773.88;;;0.80;80.92
49827;BME280;35715;51.570;6.036;2023-01-29T07:02:57;102778.88;;;0.85;80.91
49827;BME280;35715;51.570;6.036;2023-01-29T07:05:30;102773.59;;;0.84;81.26
49827;BME280;35715;51.570;6.036;2023-01-29T07:07:55;102780.41;;;0.91;80.90
49827;BME280;35715;51.570;6.036;2023-01-29T07:10:20;102785.91;;;0.94;81.08
49827;BME280;35715;51.570;6.036;2023-01-29T07:12:45;102785.91;;;0.94;80.87
49827;BME280;35715;51.570;6.036;2023-01-29T07:15:11;102785.44;;;0.96;80.98
49827;BME280;35715;51.570;6.036;2023-01-29T07:17:37;102786.06;;;1.01;81.06
49827;BME280;35715;51.570;6.036;2023-01-29T07:20:03;102780.97;;;1.01;80.95
49827;BME280;35715;51.570;6.036;2023-01-29T07:22:28;102783.94;;;1.04;81.06
49827;BME280;35715;51.570;6.036;2023-01-29T07:27:33;102791.97;;;1.07;81.07
49827;BME280;35715;51.570;6.036;2023-01-29T07:29:58;102792.41;;;1.10;80.99
49827;BME280;35715;51.570;6.036;2023-01-29T07:32:24;102787.94;;;1.15;80.91
49827;BME280;35715;51.570;6.036;2023-01-29T07:34:59;102780.72;;;1.18;80.79
49827;BME280;35715;51.570;6.036;2023-01-29T07:37:24;102777.06;;;1.16;80.77
49827;BME280;35715;51.570;6.036;2023-01-29T07:39:49;102769.72;;;1.12;80.94
49827;BME280;35715;51.570;6.036;2023-01-29T07:42:15;102774.31;;;1.14;81.64
49827;BME280;35715;51.570;6.036;2023-01-29T07:44:41;102770.78;;;1.19;81.47
49827;BME280;35715;51.570;6.036;2023-01-29T07:47:06;102771.91;;;1.21;81.35
49827;BME280;35715;51.570;6.036;2023-01-29T07:49:31;102772.34;;;1.24;81.45
49827;BME280;35715;51.570;6.036;2023-01-29T07:51:57;102767.03;;;1.23;81.66
49827;BME280;35715;51.570;6.036;2023-01-29T07:57:19;102776.69;;;1.26;81.57
49827;BME280;35715;51.570;6.036;2023-01-29T07:59:44;102776.19;;;1.28;81.56
49827;BME280;35715;51.570;6.036;2023-01-29T08:02:10;102772.97;;;1.29;81.61
49827;BME280;35715;51.570;6.036;2023-01-29T08:04:46;102779.38;;;1.33;81.62
49827;BME280;35715;51.570;6.036;2023-01-29T08:07:11;102777.22;;;1.36;81.43
49827;BME280;35715;51.570;6.036;2023-01-29T08:09:37;102772.34;;;1.37;81.42
49827;BME280;35715;51.570;6.036;2023-01-29T08:12:02;102780.09;;;1.32;81.25
49827;BME280;35715;51.570;6.036;2023-01-29T08:14:29;102784.25;;;1.31;81.44
49827;BME280;35715;51.570;6.036;2023-01-29T08:16:54;102789.25;;;1.37;81.43
49827;BME280;35715;51.570;6.036;2023-01-29T08:19:20;102776.03;;;1.39;81.51
49827;BME280;35715;51.570;6.036;2023-01-29T08:21:45;102763.13;;;1.38;81.67
49827;BME280;35715;51.570;6.036;2023-01-29T08:24:11;102765.88;;;1.39;81.37
49827;BME280;35715;51.570;6.036;2023-01-29T08:26:36;102765.13;;;1.40;81.45
49827;BME280;35715;51.570;6.036;2023-01-29T08:29:02;102764.03;;;1.38;81.52
49827;BME280;35715;51.570;6.036;2023-01-29T08:31:27;102756.69;;;1.34;81.95
49827;BME280;35715;51.570;6.036;2023-01-29T08:33:56;102746.44;;;1.40;81.78
49827;BME280;35715;51.570;6.036;2023-01-29T08:36:22;102750.09;;;1.42;81.92
49827;BME280;35715;51.570;6.036;2023-01-29T08:38:48;102743.06;;;1.47;81.74
49827;BME280;35715;51.570;6.036;2023-01-29T08:41:13;102747.38;;;1.53;81.43
49827;BME280;35715;51.570;6.036;2023-01-29T08:43:45;102745.72;;;1.54;81.29
49827;BME280;35715;51.570;6.036;2023-01-29T08:46:10;102739.75;;;1.53;81.65
49827;BME280;35715;51.570;6.036;2023-01-29T08:48:36;102731.91;;;1.52;81.55
49827;BME280;35715;51.570;6.036;2023-01-29T08:51:01;102732.41;;;1.49;81.74
49827;BME280;35715;51.570;6.036;2023-01-29T08:53:29;102732.00;;;1.46;81.66
49827;BME280;35715;51.570;6.036;2023-01-29T08:55:55;102725.47;;;1.48;81.85
49827;BME280;35715;51.570;6.036;2023-01-29T08:58:20;102712.06;;;1.49;82.17
49827;BME280;35715;51.570;6.036;2023-01-29T09:00:45;102719.81;;;1.56;81.74
49827;BME280;35715;51.570;6.036;2023-01-29T09:03:11;102718.38;;;1.58;81.89
49827;BME280;35715;51.570;6.036;2023-01-29T09:08:07;102721.41;;;1.56;81.75
49827;BME280;35715;51.570;6.036;2023-01-29T09:10:33;102718.66;;;1.54;81.78
49827;BME280;35715;51.570;6.036;2023-01-29T09:12:59;102715.50;;;1.50;82.45
49827;BME280;35715;51.570;6.036;2023-01-29T09:15:24;102724.06;;;1.50;82.36
49827;BME280;35715;51.570;6.036;2023-01-29T09:17:50;102704.13;;;1.53;82.17
49827;BME280;35715;51.570;6.036;2023-01-29T09:20:16;102705.94;;;1.54;82.11
49827;BME280;35715;51.570;6.036;2023-01-29T09:22:41;102702.28;;;1.52;82.20
49827;BME280;35715;51.570;6.036;2023-01-29T09:25:08;102702.09;;;1.51;81.81
49827;BME280;35715;51.570;6.036;2023-01-29T09:27:33;102704.13;;;1.53;81.91
49827;BME280;35715;51.570;6.036;2023-01-29T09:29:58;102711.88;;;1.61;81.94
49827;BME280;35715;51.570;6.036;2023-01-29T09:32:24;102714.09;;;1.65;82.13
49827;BME280;35715;51.570;6.036;2023-01-29T09:34:51;102707.59;;;1.67;81.73
49827;BME280;35715;51.570;6.036;2023-01-29T09:37:16;102709.22;;;1.66;81.85
49827;BME280;35715;51.570;6.036;2023-01-29T09:39:42;102704.31;;;1.68;81.46
49827;BME280;35715;51.570;6.036;2023-01-29T09:42:12;102709.41;;;1.68;81.57
49827;BME280;35715;51.570;6.036;2023-01-29T09:47:28;102714.00;;;1.70;81.36
49827;BME280;35715;51.570;6.036;2023-01-29T09:49:59;102702.72;;;1.68;81.61
49827;BME280;35715;51.570;6.036;2023-01-29T09:52:31;102701.56;;;1.66;81.77
49827;BME280;35715;51.570;6.036;2023-01-29T09:57:45;102699.66;;;1.84;81.35
49827;BME280;35715;51.570;6.036;2023-01-29T10:00:14;102704.53;;;1.82;81.22
49827;BME280;35715;51.570;6.036;2023-01-29T10:02:58;102700.47;;;1.90;81.14
49827;BME280;35715;51.570;6.036;2023-01-29T10:15:46;102702.06;;;2.02;80.68
49827;BME280;35715;51.570;6.036;2023-01-29T10:26:11;102715.41;;;2.20;80.44
49827;BME280;35715;51.570;6.036;2023-01-29T10:28:41;102719.91;;;2.15;80.24
49827;BME280;35715;51.570;6.036;2023-01-29T10:31:10;102710.50;;;2.21;80.45
49827;BME280;35715;51.570;6.036;2023-01-29T10:33:38;102709.97;;;2.24;80.22
49827;BME280;35715;51.570;6.036;2023-01-29T10:36:06;102712.03;;;2.26;80.13
49827;BME280;35715;51.570;6.036;2023-01-29T10:41:04;102704.06;;;2.30;80.20
49827;BME280;35715;51.570;6.036;2023-01-29T10:46:06;102696.53;;;2.38;79.53
49827;BME280;35715;51.570;6.036;2023-01-29T10:53:47;102702.91;;;2.41;79.49
49827;BME280;35715;51.570;6.036;2023-01-29T10:56:43;102693.84;;;2.43;79.54
49827;BME280;35715;51.570;6.036;2023-01-29T11:01:41;102680.69;;;2.40;79.15
49827;BME280;35715;51.570;6.036;2023-01-29T11:04:08;102681.56;;;2.54;79.38
49827;BME280;35715;51.570;6.036;2023-01-29T11:06:35;102672.63;;;2.50;79.10
49827;BME280;35715;51.570;6.036;2023-01-29T11:09:05;102666.78;;;2.51;79.22
49827;BME280;35715;51.570;6.036;2023-01-29T11:14:01;102652.44;;;2.52;78.84
49827;BME280;35715;51.570;6.036;2023-01-29T11:16:31;102654.78;;;2.50;79.14
49827;BME280;35715;51.570;6.036;2023-01-29T11:19:03;102643.16;;;2.52;79.02
49827;BME280;35715;51.570;6.036;2023-01-29T11:21:29;102631.91;;;2.57;78.82
49827;BME280;35715;51.570;6.036;2023-01-29T11:24:06;102638.53;;;2.62;78.85
49827;BME280;35715;51.570;6.036;2023-01-29T11:26:36;102632.50;;;2.62;78.68
49827;BME280;35715;51.570;6.036;2023-01-29T11:29:03;102632.31;;;2.60;78.54
49827;BME280;35715;51.570;6.036;2023-01-29T11:31:28;102622.84;;;2.59;78.46
49827;BME280;35715;51.570;6.036;2023-01-29T11:34:12;102625.22;;;2.58;78.91
49827;BME280;35715;51.570;6.036;2023-01-29T11:36:40;102611.09;;;2.67;79.00
49827;BME280;35715;51.570;6.036;2023-01-29T11:39:19;102613.13;;;2.70;78.34
49827;BME280;35715;51.570;6.036;2023-01-29T11:42:03;102602.06;;;2.76;78.88
49827;BME280;35715;51.570;6.036;2023-01-29T11:44:31;102598.41;;;2.74;78.62
49827;BME280;35715;51.570;6.036;2023-01-29T11:46:58;102584.81;;;2.81;78.78
49827;BME280;35715;51.570;6.036;2023-01-29T11:49:32;102579.56;;;2.87;78.62
49827;BME280;35715;51.570;6.036;2023-01-29T11:51:59;102578.50;;;2.92;78.57
49827;BME280;35715;51.570;6.036;2023-01-29T11:54:28;102563.41;;;2.93;78.29
49827;BME280;35715;51.570;6.036;2023-01-29T11:56:54;102557.28;;;3.06;78.70
49827;BME280;35715;51.570;6.036;2023-01-29T12:02:15;102544.16;;;3.02;77.42
49827;BME280;35715;51.570;6.036;2023-01-29T12:04:42;102537.06;;;3.07;77.39
49827;BME280;35715;51.570;6.036;2023-01-29T12:07:14;102533.16;;;3.16;77.55
49827;BME280;35715;51.570;6.036;2023-01-29T12:09:40;102530.22;;;3.20;77.33
49827;BME280;35715;51.570;6.036;2023-01-29T12:17:35;102515.69;;;3.19;76.52
49827;BME280;35715;51.570;6.036;2023-01-29T12:20:08;102511.53;;;3.27;77.21
49827;BME280;35715;51.570;6.036;2023-01-29T12:22:39;102508.22;;;3.28;76.87
49827;BME280;35715;51.570;6.036;2023-01-29T12:25:19;102508.59;;;3.31;76.97
49827;BME280;35715;51.570;6.036;2023-01-29T12:27:47;102498.41;;;3.31;76.39
49827;BME280;35715;51.570;6.036;2023-01-29T12:30:19;102493.84;;;3.36;76.38
49827;BME280;35715;51.570;6.036;2023-01-29T12:38:22;102484.25;;;3.48;76.12
49827;BME280;35715;51.570;6.036;2023-01-29T12:40:55;102482.25;;;3.52;76.30
49827;BME280;35715;51.570;6.036;2023-01-29T12:45:53;102459.78;;;3.35;75.62
49827;BME280;35715;51.570;6.036;2023-01-29T12:48:22;102463.81;;;3.33;75.18
49827;BME280;35715;51.570;6.036;2023-01-29T12:50:50;102458.88;;;3.35;75.29
49827;BME280;35715;51.570;6.036;2023-01-29T12:56:09;102468.19;;;3.42;75.47
49827;BME280;35715;51.570;6.036;2023-01-29T12:58:36;102458.31;;;3.37;75.13
49827;BME280;35715;51.570;6.036;2023-01-29T13:01:15;102453.78;;;3.42;74.90
49827;BME280;35715;51.570;6.036;2023-01-29T13:06:41;102458.72;;;3.48;75.01
49827;BME280;35715;51.570;6.036;2023-01-29T13:09:10;102441.44;;;3.52;75.07
49827;BME280;35715;51.570;6.036;2023-01-29T13:11:50;102437.59;;;3.49;74.75
49827;BME280;35715;51.570;6.036;2023-01-29T13:14:21;102432.31;;;3.47;74.47
49827;BME280;35715;51.570;6.036;2023-01-29T13:16:49;102435.41;;;3.52;74.81
49827;BME280;35715;51.570;6.036;2023-01-29T13:19:21;102433.22;;;3.48;74.50
49827;BME280;35715;51.570;6.036;2023-01-29T13:21:51;102427.41;;;3.49;74.55
49827;BME280;35715;51.570;6.036;2023-01-29T13:24:18;102435.06;;;3.49;74.53
49827;BME280;35715;51.570;6.036;2023-01-29T13:26:45;102423.75;;;3.54;74.62
49827;BME280;35715;51.570;6.036;2023-01-29T13:29:21;102427.59;;;3.50;74.18
49827;BME280;35715;51.570;6.036;2023-01-29T13:31:47;102423.41;;;3.58;74.64
49827;BME280;35715;51.570;6.036;2023-01-29T13:34:24;102422.31;;;3.56;74.47
49827;BME280;35715;51.570;6.036;2023-01-29T13:36:56;102417.75;;;3.61;74.71
49827;BME280;35715;51.570;6.036;2023-01-29T13:39:23;102413.22;;;3.65;74.60
49827;BME280;35715;51.570;6.036;2023-01-29T13:41:50;102412.28;;;3.65;74.55
49827;BME280;35715;51.570;6.036;2023-01-29T13:44:24;102399.34;;;3.63;74.13
49827;BME280;35715;51.570;6.036;2023-01-29T13:47:24;102398.81;;;3.66;74.51
49827;BME280;35715;51.570;6.036;2023-01-29T13:49:46;102400.44;;;3.65;74.27
49827;BME280;35715;51.570;6.036;2023-01-29T14:00:55;102386.56;;;3.63;74.18
49827;BME280;35715;51.570;6.036;2023-01-29T14:07:56;102378.75;;;3.54;74.31
49827;BME280;35715;51.570;6.036;2023-01-29T14:10:23;102378.38;;;3.59;74.58
49827;BME280;35715;51.570;6.036;2023-01-29T14:12:49;102382.56;;;3.58;74.77
49827;BME280;35715;51.570;6.036;2023-01-29T14:25:50;102382.56;;;3.58;74.48
49827;BME280;35715;51.570;6.036;2023-01-29T14:28:19;102375.28;;;3.61;74.55
49827;BME280;35715;51.570;6.036;2023-01-29T14:30:45;102380.56;;;3.63;74.52
49827;BME280;35715;51.570;6.036;2023-01-29T14:33:21;102373.81;;;3.63;74.55
49827;BME280;35715;51.570;6.036;2023-01-29T14:35:48;102371.09;;;3.69;74.72
49827;BME280;35715;51.570;6.036;2023-01-29T14:38:14;102375.47;;;3.70;74.53
49827;BME280;35715;51.570;6.036;2023-01-29T14:40:39;102374.00;;;3.72;74.60
49827;BME280;35715;51.570;6.036;2023-01-29T14:43:15;102372.00;;;3.77;74.59
49827;BME280;35715;51.570;6.036;2023-01-29T14:45:45;102359.06;;;3.75;74.38
49827;BME280;35715;51.570;6.036;2023-01-29T14:50:38;102367.47;;;3.74;74.77
49827;BME280;35715;51.570;6.036;2023-01-29T14:58:12;102343.94;;;3.69;74.41
49827;BME280;35715;51.570;6.036;2023-01-29T15:00:39;102341.19;;;3.68;74.41
49827;BME280;35715;51.570;6.036;2023-01-29T15:03:23;102341.00;;;3.66;74.30
49827;BME280;35715;51.570;6.036;2023-01-29T15:05:51;102337.72;;;3.60;74.47
49827;BME280;35715;51.570;6.036;2023-01-29T15:08:25;102333.72;;;3.62;74.84
49827;BME280;35715;51.570;6.036;2023-01-29T15:10:55;102335.91;;;3.52;74.66
49827;BME280;35715;51.570;6.036;2023-01-29T15:16:15;102327.72;;;3.54;75.10
49827;BME280;35715;51.570;6.036;2023-01-29T15:18:42;102323.50;;;3.55;75.31
49827;BME280;35715;51.570;6.036;2023-01-29T15:26:34;102318.59;;;3.57;75.38
49827;BME280;35715;51.570;6.036;2023-01-29T15:29:00;102324.59;;;3.64;75.60
49827;BME280;35715;51.570;6.036;2023-01-29T15:31:26;102321.34;;;3.65;75.37
49827;BME280;35715;51.570;6.036;2023-01-29T15:33:52;102314.56;;;3.66;75.53
49827;BME280;35715;51.570;6.036;2023-01-29T15:36:19;102315.88;;;3.69;75.37
49827;BME280;35715;51.570;6.036;2023-01-29T15:38:46;102312.75;;;3.65;75.59
49827;BME280;35715;51.570;6.036;2023-01-29T15:43:50;102313.09;;;3.68;75.84
49827;BME280;35715;51.570;6.036;2023-01-29T15:46:24;102310.78;;;3.69;75.92
49827;BME280;35715;51.570;6.036;2023-01-29T15:48:50;102295.63;;;3.71;75.77
49827;BME280;35715;51.570;6.036;2023-01-29T15:51:21;102293.97;;;3.71;75.66
49827;BME280;35715;51.570;6.036;2023-01-29T15:53:54;102290.53;;;3.64;75.80
49827;BME280;35715;51.570;6.036;2023-01-29T15:56:21;102279.75;;;3.66;75.77
49827;BME280;35715;51.570;6.036;2023-01-29T15:58:48;102277.94;;;3.65;76.02
49827;BME280;35715;51.570;6.036;2023-01-29T16:01:14;102278.84;;;3.66;76.19